Time;durP1;ratioP1;P1;durP2;ratioP2;P2;SDS_P1;SDS_P2;PMS_P1;PMS_P2;Temp;Humidity;BMP_temperature;BMP_pressure;BME280_temperature;BME280_humidity;BME280_pressure;Samples;Min_cycle;Max_cycle;Signal;HPM_P1;HPM_P2
2022/11/30 00:01:23;;;;;;;27.48;11.35;;;;;;;0.97;82.67;99710.09;1672723;84;21017;-77
2022/11/30 00:03:55;;;;;;;29.25;12.50;;;;;;;0.96;82.83;99711.80;1674159;84;21026;-77
2022/11/30 00:06:24;;;;;;;23.90;9.53;;;;;;;0.92;83.25;99710.00;1672660;84;21030;-78
2022/11/30 00:08:55;;;;;;;28.23;10.95;;;;;;;0.90;83.08;99720.63;1621199;87;20981;-77
2022/11/30 00:11:25;;;;;;;28.75;11.08;;;;;;;0.90;82.17;99715.92;1671906;84;21038;-77
2022/11/30 00:13:53;;;;;;;30.27;11.63;;;;;;;0.88;82.94;99722.70;1676277;84;21819;-77
2022/11/30 00:16:21;;;;;;;30.82;11.15;;;;;;;0.89;82.81;99722.71;1675347;84;22129;-77
2022/11/30 00:18:49;;;;;;;27.52;11.20;;;;;;;0.90;82.75;99722.32;1674313;84;21101;-77
2022/11/30 00:21:17;;;;;;;28.52;11.50;;;;;;;0.91;82.67;99725.31;1670613;84;21050;-78
2022/11/30 00:23:47;;;;;;;26.95;11.50;;;;;;;0.93;82.89;99723.23;1675601;84;21066;-78
2022/11/30 00:26:18;;;;;;;29.37;11.88;;;;;;;0.91;82.24;99724.89;1670895;84;21070;-77
2022/11/30 00:28:46;;;;;;;27.62;10.93;;;;;;;0.90;82.39;99722.32;1674610;84;21023;-77
2022/11/30 00:31:16;;;;;;;28.62;10.85;;;;;;;0.91;82.15;99721.05;1674264;84;21145;-77
2022/11/30 00:33:44;;;;;;;23.60;11.55;;;;;;;0.87;82.68;99728.64;1674898;84;21029;-77
2022/11/30 00:36:16;;;;;;;27.62;10.95;;;;;;;0.89;82.65;99721.43;1674561;84;21002;-77
2022/11/30 00:38:45;;;;;;;25.45;11.08;;;;;;;0.87;82.96;99712.85;1661102;85;21629;-77
2022/11/30 00:41:14;;;;;;;24.10;10.18;;;;;;;0.82;82.73;99709.73;1661622;85;21042;-77
2022/11/30 00:43:41;;;;;;;34.35;10.85;;;;;;;0.76;82.95;99721.56;1660693;85;21090;-77
2022/11/30 00:46:09;;;;;;;25.57;10.10;;;;;;;0.75;83.37;99711.28;1656761;85;21332;-77
2022/11/30 00:48:39;;;;;;;25.77;10.80;;;;;;;0.75;83.97;99703.61;1659739;85;21069;-78
2022/11/30 00:51:09;;;;;;;32.05;10.28;;;;;;;0.75;83.95;99710.86;1661412;85;21058;-77
2022/11/30 00:53:38;;;;;;;25.75;11.65;;;;;;;0.79;83.26;99714.37;1660379;85;21014;-77
2022/11/30 00:56:06;;;;;;;27.27;10.13;;;;;;;0.75;83.97;99712.14;1662734;85;21007;-77
2022/11/30 00:58:34;;;;;;;24.65;10.10;;;;;;;0.82;83.42;99709.34;1659819;85;21512;-78
2022/11/30 01:01:01;;;;;;;26.75;10.53;;;;;;;0.83;83.33;99709.77;1663231;85;21058;-77
2022/11/30 01:03:29;;;;;;;25.68;10.75;;;;;;;0.85;83.01;99702.14;1610719;87;21593;-77
2022/11/30 01:06:05;;;;;;;26.82;10.98;;;;;;;0.87;83.23;99701.33;1662436;85;21163;-77
2022/11/30 01:08:34;;;;;;;24.02;10.60;;;;;;;0.88;83.38;99699.23;1658546;85;21586;-78
2022/11/30 01:11:09;;;;;;;25.55;10.38;;;;;;;0.90;82.81;99701.42;1662924;85;21055;-77
2022/11/30 01:13:37;;;;;;;26.12;9.55;;;;;;;0.85;83.77;99700.43;1657770;85;20971;-77
2022/11/30 01:16:10;;;;;;;28.30;10.85;;;;;;;0.87;83.47;99700.47;1663203;85;21026;-77
2022/11/30 01:18:38;;;;;;;20.10;9.30;;;;;;;0.90;83.27;99702.70;1661355;85;21498;-77
2022/11/30 01:21:09;;;;;;;27.60;9.23;;;;;;;0.88;83.65;99702.22;1654606;85;21502;-77
2022/11/30 01:23:36;;;;;;;24.37;10.75;;;;;;;0.91;83.16;99703.55;1661421;85;20979;-77
2022/11/30 01:26:04;;;;;;;24.90;9.88;;;;;;;0.89;83.38;99703.94;1661386;85;21011;-77
2022/11/30 01:28:31;;;;;;;26.27;10.53;;;;;;;0.88;83.52;99704.36;1662853;85;21031;-77
2022/11/30 01:31:02;;;;;;;32.90;11.93;;;;;;;0.85;83.60;99701.71;1661665;85;21646;-77
2022/11/30 01:33:30;;;;;;;24.45;10.25;;;;;;;0.85;83.36;99705.55;1662104;85;21042;-77
2022/11/30 01:36:01;;;;;;;27.50;11.97;;;;;;;0.91;83.49;99706.11;1660392;85;21070;-77
2022/11/30 01:38:38;;;;;;;31.00;11.75;;;;;;;0.94;83.41;99710.90;1665573;85;21134;-77
2022/11/30 01:41:08;;;;;;;36.08;11.12;;;;;;;0.94;82.87;99708.34;1662598;85;21026;-78
2022/11/30 01:43:49;;;;;;;24.63;10.85;;;;;;;0.85;83.30;99708.11;1659978;85;21025;-77
2022/11/30 01:46:37;;;;;;;23.42;10.70;;;;;;;0.79;83.55;99706.27;1643582;85;21020;-78
2022/11/30 01:49:21;;;;;;;30.10;11.30;;;;;;;0.78;83.49;99708.81;1640085;86;21577;-78
2022/11/30 01:51:50;;;;;;;22.55;9.48;;;;;;;0.79;83.27;99709.25;1642655;86;21032;-77
2022/11/30 01:54:23;;;;;;;26.87;10.00;;;;;;;0.81;82.90;99711.43;1642662;86;20993;-77
2022/11/30 01:56:58;;;;;;;27.25;10.65;;;;;;;0.83;82.87;99717.45;1658436;86;21068;-77
2022/11/30 01:59:26;;;;;;;26.97;10.23;;;;;;;0.82;83.22;99717.02;1637290;86;21532;-77
2022/11/30 02:01:54;;;;;;;30.30;9.83;;;;;;;0.81;83.26;99715.69;1624348;86;20979;-78
2022/11/30 02:04:27;;;;;;;22.48;9.65;;;;;;;0.81;83.59;99710.15;1639101;86;21040;-78
2022/11/30 02:06:57;;;;;;;26.27;9.80;;;;;;;0.82;82.98;99719.58;1639134;86;21507;-77
2022/11/30 02:09:26;;;;;;;25.15;10.38;;;;;;;0.78;82.94;99721.61;1613687;87;21070;-77
2022/11/30 02:11:54;;;;;;;26.87;10.68;;;;;;;0.78;83.26;99720.33;1640160;85;21072;-78
2022/11/30 02:14:36;;;;;;;25.27;9.98;;;;;;;0.81;82.79;99718.25;1610595;88;21015;-78
2022/11/30 02:17:34;;;;;;;24.35;10.05;;;;;;;0.75;83.21;99721.10;1642508;86;21043;-77
2022/11/30 02:20:16;;;;;;;27.10;9.45;;;;;;;0.75;83.05;99724.94;1612829;87;21050;-77
2022/11/30 02:23:15;;;;;;;27.27;9.90;;;;;;;0.70;83.46;99724.41;1614118;87;20987;-77
2022/11/30 02:25:48;;;;;;;25.97;9.10;;;;;;;0.70;83.77;99723.98;1647533;85;21909;-77
2022/11/30 02:28:37;;;;;;;27.40;9.88;;;;;;;0.72;83.45;99726.58;1640415;85;21020;-77
2022/11/30 02:31:10;;;;;;;26.17;10.00;;;;;;;0.74;83.55;99722.37;1637889;86;20948;-77
2022/11/30 02:33:40;;;;;;;26.13;8.43;;;;;;;0.75;83.60;99718.97;1638392;86;21034;-77
2022/11/30 02:36:09;;;;;;;24.85;9.23;;;;;;;0.77;83.43;99722.42;1640799;86;21030;-78
2022/11/30 02:38:37;;;;;;;22.73;8.68;;;;;;;0.73;83.41;99716.36;1637789;86;21071;-78
2022/11/30 02:41:05;;;;;;;21.87;8.83;;;;;;;0.75;83.42;99714.70;1641749;86;21063;-78
2022/11/30 02:43:34;;;;;;;21.20;9.58;;;;;;;0.72;83.53;99720.19;1638025;86;21026;-77
2022/11/30 02:46:28;;;;;;;24.67;9.55;;;;;;;0.71;83.75;99719.30;1642957;86;20993;-77
2022/11/30 02:49:07;;;;;;;27.95;9.70;;;;;;;0.71;83.51;99718.02;1641484;86;21023;-77
2022/11/30 02:51:38;;;;;;;31.85;11.08;;;;;;;0.72;83.40;99718.91;1643253;86;21057;-77
2022/11/30 02:54:07;;;;;;;35.63;11.28;;;;;;;0.73;83.34;99716.78;1641350;86;20963;-77
2022/11/30 02:56:34;;;;;;;30.00;12.13;;;;;;;0.63;83.70;99720.80;1642918;86;20995;-77
2022/11/30 02:59:01;;;;;;;27.90;11.22;;;;;;;0.61;83.47;99724.16;1641793;86;21019;-77
2022/11/30 03:01:29;;;;;;;27.10;11.08;;;;;;;0.53;83.58;99726.52;1621603;86;21029;-77
2022/11/30 03:03:56;;;;;;;31.50;11.63;;;;;;;0.49;83.78;99733.25;1641680;86;21019;-77
2022/11/30 03:06:24;;;;;;;29.18;11.78;;;;;;;0.44;84.21;99724.61;1642020;86;21068;-77
2022/11/30 03:08:51;;;;;;;23.70;11.35;;;;;;;0.43;84.06;99725.84;1641162;86;20972;-78
2022/11/30 03:11:19;;;;;;;24.32;10.28;;;;;;;0.40;84.57;99726.64;1641676;86;21016;-77
2022/11/30 03:13:46;;;;;;;27.80;11.30;;;;;;;0.42;83.92;99727.55;1642359;86;21041;-77
2022/11/30 03:16:14;;;;;;;28.23;10.78;;;;;;;0.37;83.45;99731.23;1643146;86;20984;-77
2022/11/30 03:18:42;;;;;;;26.95;11.20;;;;;;;0.38;83.75;99732.98;1642980;86;21064;-77
2022/11/30 03:21:11;;;;;;;26.93;10.50;;;;;;;0.36;84.29;99734.64;1643574;86;21045;-78
2022/11/30 03:23:39;;;;;;;26.23;9.98;;;;;;;0.38;84.34;99739.38;1642548;86;21505;-77
2022/11/30 03:26:07;;;;;;;28.32;11.25;;;;;;;0.41;84.31;99732.61;1639738;86;21023;-77
2022/11/30 03:28:36;;;;;;;29.75;10.43;;;;;;;0.42;83.90;99736.50;1641661;86;21116;-78
2022/11/30 03:31:05;;;;;;;21.50;10.45;;;;;;;0.36;84.45;99735.91;1639794;86;21027;-78
2022/11/30 03:33:32;;;;;;;24.85;10.80;;;;;;;0.34;84.36;99736.29;1643151;86;21076;-77
2022/11/30 03:36:03;;;;;;;32.17;10.78;;;;;;;0.30;84.84;99732.31;1640163;86;21622;-77
2022/11/30 03:38:31;;;;;;;24.90;10.43;;;;;;;0.29;84.94;99724.20;1639141;86;21054;-78
2022/11/30 03:41:05;;;;;;;22.40;10.40;;;;;;;0.29;84.85;99726.77;1643155;86;21080;-77
2022/11/30 03:43:33;;;;;;;29.15;12.18;;;;;;;0.23;85.11;99727.88;1643090;86;21603;-78
2022/11/30 03:46:01;;;;;;;26.52;11.57;;;;;;;0.18;85.09;99719.67;1639954;86;21653;-77
2022/11/30 03:48:29;;;;;;;31.15;9.35;;;;;;;0.17;84.75;99727.30;1641210;86;22215;-78
2022/11/30 03:50:57;;;;;;;28.23;11.40;;;;;;;0.16;84.90;99730.28;1640187;86;21058;-77
2022/11/30 03:53:25;;;;;;;28.98;11.75;;;;;;;0.12;85.44;99731.02;1628332;86;21016;-77
2022/11/30 03:55:55;;;;;;;27.45;11.10;;;;;;;0.08;84.79;99724.09;1643620;86;21025;-77
2022/11/30 03:58:24;;;;;;;31.15;12.28;;;;;;;0.04;84.94;99723.95;1640116;86;21568;-77
2022/11/30 04:01:03;;;;;;;26.30;10.93;;;;;;;-0.01;85.16;99729.80;1646421;86;21063;-77
2022/11/30 04:03:31;;;;;;;27.85;11.97;;;;;;;-0.04;85.68;99733.95;1639140;86;21059;-77
2022/11/30 04:05:58;;;;;;;32.33;11.18;;;;;;;-0.02;85.27;99740.87;1642415;86;21036;-77
2022/11/30 04:08:26;;;;;;;29.75;11.63;;;;;;;-0.03;85.18;99749.77;1639813;86;21078;-77
2022/11/30 04:10:57;;;;;;;26.27;10.45;;;;;;;-0.03;85.24;99744.66;1641162;86;21047;-77
2022/11/30 04:13:25;;;;;;;32.88;12.33;;;;;;;-0.02;85.69;99750.20;1638896;86;21657;-77
2022/11/30 04:15:54;;;;;;;27.30;11.55;;;;;;;-0.03;85.74;99749.34;1642023;86;21132;-77
2022/11/30 04:18:23;;;;;;;21.60;10.28;;;;;;;0.01;85.52;99742.63;1641688;86;21031;-77
2022/11/30 04:20:52;;;;;;;22.67;10.80;;;;;;;0.00;85.88;99743.48;1643267;86;21587;-77
2022/11/30 04:23:21;;;;;;;22.77;10.80;;;;;;;0.04;85.97;99745.29;1641868;86;20963;-77
2022/11/30 04:25:49;;;;;;;34.13;12.07;;;;;;;0.08;85.88;99738.55;1642513;86;21010;-77
2022/11/30 04:28:18;;;;;;;23.57;10.70;;;;;;;0.10;86.40;99740.73;1641614;86;21508;-78
2022/11/30 04:30:46;;;;;;;30.55;12.45;;;;;;;0.14;85.51;99734.48;1640952;86;21104;-77
2022/11/30 04:33:15;;;;;;;27.35;11.73;;;;;;;0.13;85.96;99741.69;1640397;86;20987;-78
2022/11/30 04:35:47;;;;;;;29.45;11.68;;;;;;;0.17;85.54;99740.94;1640729;86;21621;-77
2022/11/30 04:38:14;;;;;;;27.65;11.22;;;;;;;0.16;86.07;99753.67;1611800;88;21086;-78
2022/11/30 04:40:43;;;;;;;26.23;10.53;;;;;;;0.21;86.02;99759.80;1591524;89;21110;-78
2022/11/30 04:43:11;;;;;;;32.40;11.40;;;;;;;0.25;86.06;99747.97;1615295;89;21534;-77
2022/11/30 04:45:40;;;;;;;26.70;10.88;;;;;;;0.27;85.84;99755.27;1612957;88;21068;-78
2022/11/30 04:48:08;;;;;;;24.52;11.38;;;;;;;0.30;85.81;99757.50;1615094;89;20947;-78
2022/11/30 04:50:35;;;;;;;33.13;10.75;;;;;;;0.33;85.64;99755.42;1612335;88;21011;-78
2022/11/30 04:53:03;;;;;;;27.85;11.30;;;;;;;0.35;85.59;99754.63;1615035;89;20978;-78
2022/11/30 04:55:31;;;;;;;34.23;11.12;;;;;;;0.35;85.89;99757.19;1611889;89;21042;-77
2022/11/30 04:57:58;;;;;;;23.80;10.05;;;;;;;0.38;85.46;99751.31;1616146;88;21557;-77
2022/11/30 05:00:26;;;;;;;28.50;12.30;;;;;;;0.36;85.76;99760.64;1611845;89;21448;-78
2022/11/30 05:02:55;;;;;;;29.42;11.25;;;;;;;0.40;85.65;99750.94;1615386;88;21533;-77
2022/11/30 05:05:23;;;;;;;25.92;11.70;;;;;;;0.45;85.51;99754.47;1614996;88;21018;-77
2022/11/30 05:07:57;;;;;;;31.05;12.75;;;;;;;0.45;85.53;99751.05;1614859;88;21076;-78
2022/11/30 05:10:26;;;;;;;32.80;12.60;;;;;;;0.49;85.68;99757.97;1615329;89;21050;-77
2022/11/30 05:12:54;;;;;;;26.82;11.70;;;;;;;0.53;85.40;99767.04;1614809;88;21060;-77
2022/11/30 05:15:21;;;;;;;39.95;12.15;;;;;;;0.54;85.46;99765.37;1614746;88;20987;-77
2022/11/30 05:17:49;;;;;;;29.85;12.25;;;;;;;0.57;85.08;99771.83;1616055;88;21052;-77
2022/11/30 05:20:17;;;;;;;25.37;11.00;;;;;;;0.55;85.21;99765.80;1615475;89;21112;-78
2022/11/30 05:22:44;;;;;;;30.75;11.95;;;;;;;0.61;85.31;99771.08;1611782;88;21095;-77
2022/11/30 05:25:12;;;;;;;33.15;12.63;;;;;;;0.61;85.10;99775.34;1614659;89;21125;-78
2022/11/30 05:27:39;;;;;;;35.98;12.47;;;;;;;0.65;85.43;99773.31;1611825;88;21075;-77
2022/11/30 05:30:10;;;;;;;36.20;13.98;;;;;;;0.67;85.10;99778.91;1588247;89;21962;-77
2022/11/30 05:32:37;;;;;;;40.17;15.40;;;;;;;0.68;84.85;99778.09;1590973;88;21066;-77
2022/11/30 05:35:05;;;;;;;41.28;15.32;;;;;;;0.67;84.79;99771.23;1613946;88;21044;-77
2022/11/30 05:37:33;;;;;;;39.15;15.78;;;;;;;0.67;84.82;99782.75;1611841;89;21038;-77
2022/11/30 05:40:00;;;;;;;51.98;18.05;;;;;;;0.67;84.85;99782.75;1626569;87;21087;-77
2022/11/30 05:42:28;;;;;;;40.05;15.18;;;;;;;0.68;84.91;99779.37;1632512;86;21052;-78
2022/11/30 05:44:56;;;;;;;49.20;16.20;;;;;;;0.67;84.95;99779.33;1619139;87;21981;-77
2022/11/30 05:47:23;;;;;;;34.58;14.15;;;;;;;0.69;84.73;99781.52;1671683;84;21066;-78
2022/11/30 05:49:51;;;;;;;40.00;16.77;;;;;;;0.69;84.86;99781.52;1673351;84;21042;-77
2022/11/30 05:52:18;;;;;;;35.83;14.98;;;;;;;0.72;84.99;99787.59;1672378;84;21038;-78
2022/11/30 05:54:46;;;;;;;45.95;18.73;;;;;;;0.73;84.82;99783.33;1670038;84;21318;-78
2022/11/30 05:57:13;;;;;;;42.70;16.93;;;;;;;0.73;84.58;99787.16;1670187;84;21645;-78
2022/11/30 05:59:41;;;;;;;43.78;16.85;;;;;;;0.63;84.88;99782.64;1672981;84;21926;-77
2022/11/30 06:02:08;;;;;;;40.65;15.15;;;;;;;0.60;84.83;99780.87;1684448;84;21561;-77
2022/11/30 06:04:35;;;;;;;30.48;13.50;;;;;;;0.59;85.31;99781.27;1671063;84;21608;-77
2022/11/30 06:07:03;;;;;;;32.95;11.95;;;;;;;0.62;85.15;99787.29;1673627;84;21943;-77
2022/11/30 06:09:30;;;;;;;29.57;13.22;;;;;;;0.63;85.21;99776.24;1670440;84;21541;-77
2022/11/30 06:11:58;;;;;;;32.42;13.53;;;;;;;0.62;85.46;99766.81;1674748;84;21074;-78
2022/11/30 06:14:25;;;;;;;39.70;13.28;;;;;;;0.65;85.52;99772.89;1672399;84;21046;-79
2022/11/30 06:16:53;;;;;;;29.12;12.13;;;;;;;0.68;85.52;99780.66;1674732;84;22192;-76
2022/11/30 06:19:20;;;;;;;33.88;13.72;;;;;;;0.74;85.09;99779.95;1670095;84;21050;-76
2022/11/30 06:21:48;;;;;;;36.40;15.85;;;;;;;0.74;85.26;99790.19;1673963;84;21046;-77
2022/11/30 06:24:15;;;;;;;72.30;23.80;;;;;;;0.80;85.32;99795.47;1670497;84;21022;-78
2022/11/30 06:26:42;;;;;;;62.13;22.95;;;;;;;0.87;85.51;99799.89;1672974;84;21073;-77
2022/11/30 06:29:10;;;;;;;49.95;21.80;;;;;;;0.94;85.53;99797.95;1674303;84;21050;-77
2022/11/30 06:31:38;;;;;;;54.10;19.52;;;;;;;1.04;85.26;99811.85;1672199;84;21105;-77
2022/11/30 06:34:05;;;;;;;37.55;14.28;;;;;;;1.07;84.96;99811.91;1674418;84;21014;-78
2022/11/30 06:36:32;;;;;;;27.93;12.13;;;;;;;1.07;84.74;99807.20;1671789;84;21054;-77
2022/11/30 06:39:00;;;;;;;29.32;13.22;;;;;;;1.07;84.60;99816.17;1669867;84;21574;-77
2022/11/30 06:41:27;;;;;;;37.73;13.20;;;;;;;1.05;84.57;99806.30;1662209;85;21580;-77
2022/11/30 06:43:55;;;;;;;31.00;12.73;;;;;;;1.03;84.43;99818.20;1658971;85;21078;-78
2022/11/30 06:46:23;;;;;;;33.53;12.98;;;;;;;0.94;84.60;99819.71;1661404;84;21082;-77
2022/11/30 06:48:50;;;;;;;32.90;14.20;;;;;;;0.88;84.85;99822.12;1664235;85;21139;-77
2022/11/30 06:51:18;;;;;;;31.90;13.80;;;;;;;;;;1661722;84;21023;-77
2022/11/30 06:53:46;;;;;;;31.25;12.98;;;;;;;0.92;84.67;99817.53;1663178;85;21096;-77
2022/11/30 06:56:13;;;;;;;35.95;14.90;;;;;;;0.87;84.83;99821.66;1661336;84;21043;-77
2022/11/30 06:58:41;;;;;;;35.10;14.90;;;;;;;0.87;84.97;99821.66;1665510;85;21054;-78
2022/11/30 07:01:14;;;;;;;38.42;14.23;;;;;;;0.93;84.97;99827.34;1663344;85;21046;-77
2022/11/30 07:03:42;;;;;;;39.42;14.83;;;;;;;0.94;85.05;99820.14;1657898;85;21031;-77
2022/11/30 07:06:13;;;;;;;40.28;15.40;;;;;;;0.95;85.07;99820.15;1662964;85;21038;-77
2022/11/30 07:08:42;;;;;;;35.05;15.45;;;;;;;1.00;84.94;99813.88;1663072;85;21102;-77
2022/11/30 07:11:11;;;;;;;34.33;14.13;;;;;;;1.03;84.90;99819.48;1664362;85;21027;-78
2022/11/30 07:13:38;;;;;;;34.63;13.72;;;;;;;1.10;84.77;99822.23;1664380;85;21014;-77
2022/11/30 07:16:09;;;;;;;33.80;13.70;;;;;;;1.13;84.89;99818.87;1615599;87;20991;-77
2022/11/30 07:18:37;;;;;;;35.98;14.07;;;;;;;1.22;84.91;99823.38;1625953;87;21063;-77
2022/11/30 07:21:06;;;;;;;34.88;14.68;;;;;;;1.30;84.78;99813.76;1623930;87;21059;-78
2022/11/30 07:26:21;;;;;;;42.53;15.23;;;;;;;1.43;84.78;99817.88;1626440;87;22019;-77
2022/11/30 07:28:53;;;;;;;38.25;14.05;;;;;;;1.56;84.74;99816.06;1614102;87;21514;-77
2022/11/30 07:31:27;;;;;;;37.95;15.55;;;;;;;1.64;84.65;99814.95;1620383;87;21126;-77
2022/11/30 07:33:55;;;;;;;36.73;14.23;;;;;;;1.69;83.93;99812.06;1612103;87;21021;-78
2022/11/30 07:36:26;;;;;;;34.73;15.75;;;;;;;1.75;84.02;99818.59;1624815;87;21004;-77
2022/11/30 07:38:53;;;;;;;41.92;15.23;;;;;;;1.75;84.03;99805.39;1625219;87;21591;-77
2022/11/30 07:41:21;;;;;;;37.55;14.85;;;;;;;1.81;84.18;99812.75;1626579;87;21575;-77
2022/11/30 07:43:48;;;;;;;38.10;15.03;;;;;;;1.87;83.65;99812.48;1625533;87;21853;-77
2022/11/30 07:46:16;;;;;;;41.10;16.62;;;;;;;1.90;83.87;99809.97;1615159;87;21041;-77
2022/11/30 07:48:45;;;;;;;42.23;18.07;;;;;;;1.94;83.36;99810.48;1614293;87;21559;-78
2022/11/30 07:51:20;;;;;;;37.48;16.48;;;;;;;1.98;83.59;99808.85;1614752;87;21062;-78
2022/11/30 07:53:48;;;;;;;35.85;15.43;;;;;;;1.98;83.65;99803.30;1610558;87;21077;-78
2022/11/30 07:56:19;;;;;;;43.28;16.02;;;;;;;2.06;83.89;99806.02;1625926;87;20972;-77
2022/11/30 07:58:49;;;;;;;38.42;16.20;;;;;;;2.14;83.62;99812.17;1613652;87;21074;-77
2022/11/30 08:01:21;;;;;;;38.13;15.40;;;;;;;2.23;83.45;99815.36;1615553;87;21051;-77
2022/11/30 08:03:50;;;;;;;42.00;16.23;;;;;;;2.28;83.47;99815.02;1613361;87;22016;-77
2022/11/30 08:06:21;;;;;;;38.83;16.02;;;;;;;2.30;83.61;99820.19;1614107;87;21050;-77
2022/11/30 08:08:52;;;;;;;30.25;13.68;;;;;;;2.40;83.52;99828.51;1604433;87;21058;-78
2022/11/30 08:11:24;;;;;;;30.90;14.68;;;;;;;2.49;82.79;99823.98;1611984;87;21450;-77
2022/11/30 08:13:52;;;;;;;38.80;13.85;;;;;;;2.53;82.88;99829.20;1608585;87;21037;-77
2022/11/30 08:16:23;;;;;;;33.20;14.18;;;;;;;2.54;82.21;99827.06;1625318;87;21020;-77
2022/11/30 08:18:51;;;;;;;38.35;16.30;;;;;;;2.58;82.68;99823.72;1625739;87;21003;-77
2022/11/30 08:21:21;;;;;;;38.15;16.93;;;;;;;2.63;82.57;99819.97;1612379;87;21066;-77
2022/11/30 08:23:55;;;;;;;40.25;16.12;;;;;;;2.62;81.60;99816.09;1626912;87;21507;-77
2022/11/30 08:26:31;;;;;;;31.42;13.78;;;;;;;2.71;81.89;99829.11;1611115;87;21086;-77
2022/11/30 08:29:01;;;;;;;39.48;14.45;;;;;;;2.72;81.22;99821.83;1625512;87;21070;-77
2022/11/30 08:31:33;;;;;;;34.73;13.53;;;;;;;2.68;81.71;99825.19;1610819;87;21169;-78
2022/11/30 08:34:05;;;;;;;28.35;13.72;;;;;;;2.64;81.21;99825.54;1615640;87;21050;-77
2022/11/30 08:36:33;;;;;;;28.92;13.00;;;;;;;2.64;81.59;99825.54;1608414;87;21013;-78
2022/11/30 08:39:03;;;;;;;35.68;14.58;;;;;;;2.64;81.90;99819.55;1626192;87;21167;-77
2022/11/30 08:41:32;;;;;;;35.73;14.53;;;;;;;2.73;81.80;99823.16;1610624;87;21042;-78
2022/11/30 08:44:00;;;;;;;39.83;15.23;;;;;;;2.79;81.49;99821.12;1621598;87;21006;-78
2022/11/30 08:46:27;;;;;;;46.92;16.57;;;;;;;2.79;81.52;99823.26;1621616;87;21061;-77
2022/11/30 08:48:55;;;;;;;42.38;15.88;;;;;;;2.78;81.32;99818.95;1674388;84;21530;-77
2022/11/30 08:51:23;;;;;;;36.53;15.58;;;;;;;2.84;81.54;99824.61;1675208;84;20994;-79
2022/11/30 08:53:50;;;;;;;34.30;15.05;;;;;;;2.94;81.55;99823.94;1673785;84;21014;-77
2022/11/30 08:56:24;;;;;;;32.58;14.47;;;;;;;3.00;81.52;99825.75;1675159;84;21026;-77
2022/11/30 08:58:51;;;;;;;29.48;12.63;;;;;;;3.07;80.34;99821.17;1673538;84;21315;-78
2022/11/30 09:01:22;;;;;;;29.27;13.15;;;;;;;3.18;80.87;99822.62;1610457;85;20979;-78
2022/11/30 09:03:52;;;;;;;;;;;;;;;3.21;80.57;99827.83;1413526;85;9999849;-77
2022/11/30 09:06:28;;;;;;;33.84;13.70;;;;;;;3.28;80.55;99829.66;1412343;85;10000530;-77
2022/11/30 09:08:57;;;;;;;37.40;14.70;;;;;;;3.38;80.96;99827.69;1647487;85;21020;-78
2022/11/30 09:11:31;;;;;;;37.88;14.53;;;;;;;3.46;79.48;99820.48;1624335;86;21005;-78
2022/11/30 09:14:03;;;;;;;37.40;13.53;;;;;;;3.54;80.16;99815.92;1646110;85;21520;-77
2022/11/30 09:16:30;;;;;;;31.07;13.95;;;;;;;3.66;80.66;99815.25;1648260;86;21061;-78
2022/11/30 09:18:58;;;;;;;37.55;15.05;;;;;;;3.77;79.73;99813.66;1647236;85;21003;-77
2022/11/30 09:21:26;;;;;;;31.15;14.58;;;;;;;3.84;79.71;99810.78;1662465;85;21027;-77
2022/11/30 09:23:55;;;;;;;32.90;13.55;;;;;;;3.85;79.99;99806.48;1663517;85;21653;-78
2022/11/30 09:26:25;;;;;;;32.63;13.35;;;;;;;3.88;79.86;99811.26;1661825;85;21074;-78
2022/11/30 09:28:53;;;;;;;32.67;14.18;;;;;;;3.91;79.34;99805.28;1660028;85;21134;-78
2022/11/30 09:31:25;;;;;;;41.40;14.60;;;;;;;3.97;79.28;99797.20;1663718;85;21037;-78
2022/11/30 09:33:56;;;;;;;36.90;14.93;;;;;;;4.01;78.98;99798.55;1658232;85;22206;-78
2022/11/30 09:36:26;;;;;;;44.20;16.45;;;;;;;4.03;79.02;99785.28;1657406;85;21074;-79
2022/11/30 09:38:56;;;;;;;42.98;17.62;;;;;;;4.02;78.95;99783.14;1659267;85;21352;-77
2022/11/30 09:42:11;;;;;;;37.75;15.65;;;;;;;4.06;79.08;99784.91;1660436;85;21051;-78
2022/11/30 09:45:03;;;;;;;45.95;18.90;;;;;;;4.24;79.15;99793.66;1657804;85;21063;-77
2022/11/30 09:47:36;;;;;;;37.17;17.15;;;;;;;4.32;78.99;99788.21;1637658;85;21043;-78
2022/11/30 09:50:17;;;;;;;35.33;14.95;;;;;;;4.46;79.12;99780.64;1656532;85;22124;-77
2022/11/30 09:52:56;;;;;;;31.77;15.10;;;;;;;4.53;79.10;99780.69;1654560;86;21098;-77
2022/11/30 09:55:32;;;;;;;34.78;14.50;;;;;;;4.61;78.81;99780.77;1657168;85;21039;-78
2022/11/30 09:58:03;;;;;;;37.45;14.43;;;;;;;4.65;78.77;99779.09;1660296;85;21008;-77
2022/11/30 10:00:32;;;;;;;34.15;14.23;;;;;;;4.66;78.27;99775.25;1651836;85;21526;-78
2022/11/30 10:03:04;;;;;;;42.05;15.28;;;;;;;4.74;78.50;99771.03;1645655;85;20987;-78
2022/11/30 10:05:52;;;;;;;37.80;14.75;;;;;;;4.86;78.62;99769.43;1649693;85;21031;-78
2022/11/30 10:08:37;;;;;;;34.73;13.88;;;;;;;4.95;78.33;99766.52;1645825;85;20983;-78
2022/11/30 10:11:32;;;;;;;24.32;10.85;;;;;;;5.00;77.78;99766.54;1649390;85;21563;-78
2022/11/30 10:14:28;;;;;;;27.05;11.40;;;;;;;5.11;77.85;99758.48;1648324;85;20994;-77
2022/11/30 10:17:13;;;;;;;29.20;12.80;;;;;;;5.13;77.50;99750.73;1646708;85;21008;-78
2022/11/30 10:19:52;;;;;;;32.95;12.65;;;;;;;5.16;76.86;99750.77;1646024;85;21900;-78
2022/11/30 10:22:31;;;;;;;33.63;13.00;;;;;;;5.22;76.87;99746.94;1651617;85;21032;-78
2022/11/30 10:25:19;;;;;;;28.27;13.30;;;;;;;5.33;76.70;99741.84;1645380;85;20964;-78
2022/11/30 10:28:09;;;;;;;31.12;12.63;;;;;;;5.32;76.55;99742.28;1631977;85;21010;-78
2022/11/30 10:30:37;;;;;;;28.07;10.43;;;;;;;5.49;76.91;99735.06;1664250;85;20983;-78
2022/11/30 10:33:13;;;;;;;26.65;12.37;;;;;;;5.63;75.50;99740.30;1663611;85;21054;-79
2022/11/30 10:35:46;;;;;;;29.70;12.18;;;;;;;5.73;75.62;99736.91;1648035;85;21034;-79
2022/11/30 10:38:24;;;;;;;32.35;12.55;;;;;;;5.80;74.66;99740.40;1650594;85;21058;-78
2022/11/30 10:41:22;;;;;;;19.98;8.83;;;;;;;5.85;74.48;99740.86;1630892;87;21048;-77
2022/11/30 10:44:16;;;;;;;25.48;9.18;;;;;;;5.90;74.32;99735.70;1624846;87;21563;-77
2022/11/30 10:47:19;;;;;;;23.32;10.03;;;;;;;5.97;75.21;99738.36;1624728;88;21936;-78
2022/11/30 10:49:51;;;;;;;23.80;9.88;;;;;;;5.95;73.87;99732.33;1631020;87;21035;-78
2022/11/30 10:52:27;;;;;;;21.97;9.63;;;;;;;6.02;74.48;99736.22;1654708;85;21017;-78
2022/11/30 10:54:56;;;;;;;20.45;9.25;;;;;;;5.99;73.27;99738.38;1650627;85;21071;-78
2022/11/30 10:57:28;;;;;;;22.20;9.95;;;;;;;6.07;74.31;99726.75;1647894;85;21599;-77
2022/11/30 10:59:58;;;;;;;25.72;10.72;;;;;;;6.05;73.51;99736.21;1650830;85;21070;-78
2022/11/30 11:02:46;;;;;;;23.47;10.13;;;;;;;6.08;73.09;99734.51;1633899;87;21594;-78
2022/11/30 11:05:25;;;;;;;22.75;10.50;;;;;;;6.15;73.80;99731.54;1626347;87;21637;-77
2022/11/30 11:08:02;;;;;;;19.32;9.30;;;;;;;6.18;72.71;99727.22;1626693;87;21123;-77
2022/11/30 11:10:50;;;;;;;15.70;8.13;;;;;;;6.30;74.32;99728.13;1651581;86;20993;-78
2022/11/30 11:13:42;;;;;;;18.65;9.78;;;;;;;6.36;73.46;99719.09;1649240;87;21797;-77
2022/11/30 11:16:12;;;;;;;16.45;7.80;;;;;;;6.48;73.11;99722.98;1654516;87;21792;-77
2022/11/30 11:18:55;;;;;;;13.15;7.17;;;;;;;6.51;73.34;99730.75;1654069;86;20999;-78
2022/11/30 11:21:23;;;;;;;14.80;7.17;;;;;;;6.65;73.78;99723.02;1650915;86;21523;-78
2022/11/30 11:23:54;;;;;;;14.98;6.62;;;;;;;6.68;70.54;99727.31;1654266;86;21452;-77
2022/11/30 11:26:26;;;;;;;17.05;7.78;;;;;;;6.61;70.18;99729.48;1648028;86;21054;-78
2022/11/30 11:28:58;;;;;;;15.43;6.33;;;;;;;6.52;71.02;99713.52;1652125;87;21003;-77
2022/11/30 11:31:48;;;;;;;15.45;6.37;;;;;;;6.66;72.05;99725.16;1648639;86;20983;-75
2022/11/30 11:34:30;;;;;;;15.50;7.45;;;;;;;6.65;71.41;99722.16;1651674;84;20960;-77
2022/11/30 11:37:18;;;;;;;15.58;6.75;;;;;;;6.70;70.87;99715.27;1640461;87;21033;-77
2022/11/30 11:40:16;;;;;;;16.42;7.58;;;;;;;6.73;70.90;99707.53;1649429;86;21001;-77
2022/11/30 11:42:53;;;;;;;25.25;8.83;;;;;;;6.83;72.08;99713.56;1663601;85;21003;-78
2022/11/30 11:45:34;;;;;;;19.20;7.90;;;;;;;6.87;71.48;99710.97;1656663;86;21019;-77
2022/11/30 11:48:09;;;;;;;16.60;8.03;;;;;;;6.91;71.42;99710.54;1664399;85;21826;-77
2022/11/30 11:50:37;;;;;;;19.00;8.00;;;;;;;6.97;70.54;99711.38;1663528;85;21001;-78